Time;durP1;ratioP1;P1;durP2;ratioP2;P2;SDS_P1;SDS_P2;PMS_P1;PMS_P2;Temp;Humidity;BMP_temperature;BMP_pressure;BME280_temperature;BME280_humidity;BME280_pressure;Samples;Min_cycle;Max_cycle;Signal;HPM_P1;HPM_P2
2024/01/12 00:00:11;;;;;;;40.95;15.93;;;;;;;;;;5032413;28;20097;-76
2024/01/12 00:02:37;;;;;;;36.80;15.93;;;;;;;;;;5026057;28;20045;-76
2024/01/12 00:05:02;;;;;;;48.72;16.25;;;;;;;;;;5029055;28;20137;-76
2024/01/12 00:07:28;;;;;;;39.15;15.10;;;;;;;;;;5026922;28;20034;-76
2024/01/12 00:09:54;;;;;;;34.97;14.45;;;;;;;;;;5009397;28;20042;-76
2024/01/12 00:12:20;;;;;;;37.58;15.65;;;;;;;;;;5010829;28;20073;-76
2024/01/12 00:14:46;;;;;;;41.63;15.68;;;;;;;;;;5007832;28;20046;-76
2024/01/12 00:17:11;;;;;;;42.17;16.02;;;;;;;;;;5007629;28;20025;-76
2024/01/12 00:19:36;;;;;;;47.42;18.02;;;;;;;;;;4989969;28;20034;-76
2024/01/12 00:22:02;;;;;;;39.53;16.33;;;;;;;;;;5008222;28;20029;-76
2024/01/12 00:24:27;;;;;;;41.10;15.48;;;;;;;;;;4990631;28;20061;-76
2024/01/12 00:26:52;;;;;;;49.85;18.05;;;;;;;;;;5008601;28;20037;-77
2024/01/12 00:29:18;;;;;;;45.55;17.70;;;;;;;;;;5009002;28;20509;-76
2024/01/12 00:31:43;;;;;;;42.90;16.05;;;;;;;;;;5008728;28;20108;-76
2024/01/12 00:34:09;;;;;;;42.20;17.85;;;;;;;;;;4989947;28;20038;-75
2024/01/12 00:36:34;;;;;;;55.60;18.83;;;;;;;;;;5005842;28;20061;-77
2024/01/12 00:38:59;;;;;;;46.33;17.13;;;;;;;;;;5007976;28;20050;-77
2024/01/12 00:41:25;;;;;;;43.85;16.35;;;;;;;;;;4990986;28;20033;-75
2024/01/12 00:43:50;;;;;;;36.67;15.35;;;;;;;;;;4974671;28;20058;-76
2024/01/12 00:46:16;;;;;;;48.13;16.73;;;;;;;;;;4991116;28;20074;-76
2024/01/12 00:48:43;;;;;;;43.83;17.00;;;;;;;;;;4981030;28;20053;-76
2024/01/12 00:51:10;;;;;;;40.63;16.23;;;;;;;;;;5005134;28;20041;-76
2024/01/12 00:53:36;;;;;;;41.35;16.48;;;;;;;;;;4994415;28;20104;-76
2024/01/12 00:56:01;;;;;;;46.47;17.83;;;;;;;;;;4972053;28;20050;-76
2024/01/12 00:58:27;;;;;;;41.22;15.75;;;;;;;;;;4988236;28;20038;-76
2024/01/12 01:00:52;;;;;;;47.90;17.73;;;;;;;;;;4988762;28;20894;-76
2024/01/12 01:03:17;;;;;;;49.13;17.48;;;;;;;;;;4990097;28;20041;-76
2024/01/12 01:05:43;;;;;;;44.17;16.35;;;;;;;;;;5027988;28;20033;-76
2024/01/12 01:08:08;;;;;;;37.08;15.73;;;;;;;;;;5027214;28;20029;-76
2024/01/12 01:10:34;;;;;;;42.05;16.15;;;;;;;;;;5027956;28;20521;-75
2024/01/12 01:12:59;;;;;;;40.45;15.63;;;;;;;;;;5026748;28;20080;-76
2024/01/12 01:15:24;;;;;;;49.85;16.40;;;;;;;;;;5028087;28;20045;-76
2024/01/12 01:17:50;;;;;;;35.17;16.05;;;;;;;;;;5009320;28;20048;-76
2024/01/12 01:20:16;;;;;;;47.63;16.98;;;;;;;;;;5028105;28;20104;-76
2024/01/12 01:22:41;;;;;;;54.20;16.65;;;;;;;;;;5003826;28;20203;-76
2024/01/12 01:25:07;;;;;;;45.65;16.77;;;;;;;;;;5023587;28;20140;-76
2024/01/12 01:27:32;;;;;;;44.20;16.48;;;;;;;;;;5026961;28;20048;-76
2024/01/12 01:29:59;;;;;;;51.33;16.88;;;;;;;;;;5009215;28;20075;-76
2024/01/12 01:32:24;;;;;;;42.58;17.15;;;;;;;;;;5027436;28;20607;-76
2024/01/12 01:34:50;;;;;;;42.38;16.70;;;;;;;;;;5007259;28;20533;-75
2024/01/12 01:37:15;;;;;;;40.67;15.75;;;;;;;;;;5007966;28;20033;-76
2024/01/12 01:39:40;;;;;;;50.53;17.40;;;;;;;;;;5027133;28;20116;-76
2024/01/12 01:42:06;;;;;;;39.05;15.82;;;;;;;;;;5005622;28;20030;-76
2024/01/12 01:44:31;;;;;;;43.95;16.98;;;;;;;;;;5023845;28;20104;-76
2024/01/12 01:46:58;;;;;;;42.60;16.08;;;;;;;;;;5027516;28;20151;-76
2024/01/12 01:49:24;;;;;;;46.25;17.27;;;;;;;;;;5027037;28;20135;-76
2024/01/12 01:51:50;;;;;;;44.83;16.35;;;;;;;;;;5026952;28;20041;-76
2024/01/12 01:54:19;;;;;;;43.17;16.90;;;;;;;;;;5027106;28;20034;-76
2024/01/12 01:56:46;;;;;;;41.90;16.23;;;;;;;;;;5008984;28;20895;-76
2024/01/12 01:59:11;;;;;;;41.65;15.93;;;;;;;;;;5027381;28;20035;-76
2024/01/12 02:01:37;;;;;;;39.75;15.70;;;;;;;;;;5009762;28;20037;-76
2024/01/12 02:04:03;;;;;;;39.63;16.27;;;;;;;;;;5027272;28;20048;-76
2024/01/12 02:06:29;;;;;;;46.20;16.30;;;;;;;;;;5012070;28;20438;-76
2024/01/12 02:08:56;;;;;;;42.60;16.40;;;;;;;;;;5035996;28;20050;-76
2024/01/12 02:11:22;;;;;;;49.00;18.20;;;;;;;;;;5019629;28;20032;-76
2024/01/12 02:13:48;;;;;;;45.20;18.27;;;;;;;;;;5026700;28;20046;-76
2024/01/12 02:16:13;;;;;;;48.08;16.98;;;;;;;;;;5026819;28;20029;-76
2024/01/12 02:18:38;;;;;;;37.22;15.60;;;;;;;;;;5026519;28;20041;-76
2024/01/12 02:21:04;;;;;;;41.65;16.10;;;;;;;;;;5012793;28;20041;-75
2024/01/12 02:23:31;;;;;;;40.53;17.08;;;;;;;;;;5028044;28;20029;-75
2024/01/12 02:25:56;;;;;;;43.95;16.98;;;;;;;;;;5029120;28;20021;-75
2024/01/12 02:28:22;;;;;;;42.88;17.00;;;;;;;;;;5043959;28;20101;-75
2024/01/12 02:30:49;;;;;;;38.97;14.93;;;;;;;;;;5044864;28;20038;-76
2024/01/12 02:33:14;;;;;;;47.75;16.40;;;;;;;;;;5046147;28;20052;-76
2024/01/12 02:35:40;;;;;;;40.72;16.15;;;;;;;;;;5032324;28;20312;-76
2024/01/12 02:38:05;;;;;;;42.45;15.65;;;;;;;;;;5009010;28;20025;-76
2024/01/12 02:40:30;;;;;;;39.38;16.08;;;;;;;;;;5026617;28;20029;-76
2024/01/12 02:42:56;;;;;;;39.92;15.98;;;;;;;;;;5015736;28;20038;-76
2024/01/12 02:45:21;;;;;;;41.25;15.38;;;;;;;;;;5006638;28;20511;-76
2024/01/12 02:47:47;;;;;;;46.08;17.20;;;;;;;;;;5006144;28;20029;-76
2024/01/12 02:50:12;;;;;;;45.53;17.55;;;;;;;;;;5006701;28;20058;-76
2024/01/12 02:52:38;;;;;;;49.33;16.83;;;;;;;;;;5006583;28;20034;-76
2024/01/12 02:55:04;;;;;;;41.95;17.25;;;;;;;;;;4988971;28;20040;-76
2024/01/12 02:57:30;;;;;;;42.50;15.77;;;;;;;;;;4989013;28;20036;-76
2024/01/12 02:59:55;;;;;;;44.92;16.20;;;;;;;;;;4989092;28;20041;-76
2024/01/12 03:02:21;;;;;;;44.47;16.23;;;;;;;;;;5004374;28;20402;-76
2024/01/12 03:04:46;;;;;;;45.60;17.67;;;;;;;;;;4986620;28;20034;-76
2024/01/12 03:07:11;;;;;;;47.88;18.50;;;;;;;;;;4986443;28;20042;-76
2024/01/12 03:09:39;;;;;;;46.63;16.90;;;;;;;;;;4986887;28;20189;-76
2024/01/12 03:12:04;;;;;;;42.83;16.48;;;;;;;;;;4986764;28;20431;-76
2024/01/12 03:14:30;;;;;;;42.47;16.88;;;;;;;;;;4968741;28;20033;-75
2024/01/12 03:16:55;;;;;;;46.60;17.02;;;;;;;;;;4970089;28;20022;-76
2024/01/12 03:19:20;;;;;;;44.55;17.55;;;;;;;;;;4988087;28;20129;-76
2024/01/12 03:21:46;;;;;;;42.33;16.13;;;;;;;;;;4990740;28;20038;-76
2024/01/12 03:24:11;;;;;;;41.85;16.63;;;;;;;;;;4990927;28;20460;-76
2024/01/12 03:26:37;;;;;;;46.63;17.20;;;;;;;;;;4976264;28;20033;-75
2024/01/12 03:29:03;;;;;;;48.10;17.10;;;;;;;;;;4981872;28;20448;-76
2024/01/12 03:31:29;;;;;;;42.35;17.17;;;;;;;;;;4987586;28;20070;-76
2024/01/12 03:33:54;;;;;;;42.85;16.77;;;;;;;;;;4999135;28;20061;-76
2024/01/12 03:36:20;;;;;;;41.22;16.33;;;;;;;;;;4991290;28;20074;-76
2024/01/12 03:38:45;;;;;;;46.67;17.25;;;;;;;;;;5003476;28;20037;-75
2024/01/12 03:41:11;;;;;;;41.00;16.67;;;;;;;;;;4992980;28;20026;-75
2024/01/12 03:43:36;;;;;;;48.22;16.77;;;;;;;;;;5008750;28;20030;-75
2024/01/12 03:46:03;;;;;;;32.58;14.93;;;;;;;;;;4991568;28;20034;-76
2024/01/12 03:48:28;;;;;;;37.70;15.73;;;;;;;;;;4991727;28;20060;-76
2024/01/12 03:50:54;;;;;;;38.88;16.45;;;;;;;;;;5009572;28;20140;-75
2024/01/12 03:53:19;;;;;;;37.70;15.63;;;;;;;;;;4988144;28;20093;-75
2024/01/12 03:55:44;;;;;;;45.67;17.08;;;;;;;;;;4995440;28;20037;-75
2024/01/12 03:58:10;;;;;;;42.78;16.65;;;;;;;;;;4989440;28;20031;-75
2024/01/12 04:00:35;;;;;;;42.20;16.45;;;;;;;;;;4983644;28;20534;-76
2024/01/12 04:03:00;;;;;;;44.83;15.93;;;;;;;;;;4998742;28;20041;-75
2024/01/12 04:05:26;;;;;;;47.22;17.77;;;;;;;;;;5009501;28;20561;-75
2024/01/12 04:07:51;;;;;;;41.15;16.73;;;;;;;;;;5029280;28;20018;-75
2024/01/12 04:10:17;;;;;;;47.58;15.60;;;;;;;;;;5010205;28;20044;-76
2024/01/12 04:12:42;;;;;;;36.58;16.15;;;;;;;;;;5011284;28;20045;-75
2024/01/12 04:15:08;;;;;;;43.58;15.60;;;;;;;;;;5028853;28;20033;-76
2024/01/12 04:17:34;;;;;;;52.15;17.73;;;;;;;;;;5027488;28;20052;-75
2024/01/12 04:20:00;;;;;;;44.35;16.63;;;;;;;;;;5029231;28;20057;-75
2024/01/12 04:22:25;;;;;;;43.97;16.23;;;;;;;;;;5011334;28;20083;-75
2024/01/12 04:24:51;;;;;;;42.17;16.23;;;;;;;;;;5027040;28;20113;-75
2024/01/12 04:27:16;;;;;;;45.35;15.82;;;;;;;;;;5028662;28;20045;-76
2024/01/12 04:29:41;;;;;;;51.78;17.67;;;;;;;;;;5028783;28;20522;-75
2024/01/12 04:32:07;;;;;;;38.78;16.52;;;;;;;;;;5027821;28;20040;-75
2024/01/12 04:34:37;;;;;;;45.50;16.48;;;;;;;;;;5027904;28;20124;-75
2024/01/12 04:37:03;;;;;;;38.95;15.38;;;;;;;;;;5010244;28;20091;-76
2024/01/12 04:39:29;;;;;;;42.40;16.75;;;;;;;;;;5028771;28;20033;-76
2024/01/12 04:41:54;;;;;;;45.92;16.70;;;;;;;;;;5009888;28;20073;-77
2024/01/12 04:44:19;;;;;;;41.92;16.75;;;;;;;;;;5029673;28;20029;-76
2024/01/12 04:46:45;;;;;;;42.75;16.00;;;;;;;;;;5030348;28;20034;-76
2024/01/12 04:49:10;;;;;;;43.25;16.05;;;;;;;;;;5037047;28;20042;-75
2024/01/12 04:51:36;;;;;;;41.80;16.60;;;;;;;;;;5039339;28;20029;-76
2024/01/12 04:54:01;;;;;;;45.00;16.63;;;;;;;;;;5028371;28;20072;-76
2024/01/12 04:56:26;;;;;;;46.90;16.65;;;;;;;;;;5027908;28;20537;-76
2024/01/12 04:58:52;;;;;;;42.38;16.27;;;;;;;;;;5028869;28;20041;-76
2024/01/12 05:01:18;;;;;;;39.83;15.95;;;;;;;;;;5026701;28;20515;-76
2024/01/12 05:03:43;;;;;;;45.17;15.70;;;;;;;;;;5009277;28;20049;-76
2024/01/12 05:06:09;;;;;;;38.45;15.13;;;;;;;;;;5009048;28;20466;-75
2024/01/12 05:08:36;;;;;;;39.22;15.05;;;;;;;;;;5010301;28;20140;-76
2024/01/12 05:11:02;;;;;;;35.25;15.13;;;;;;;;;;5026712;28;20462;-75
2024/01/12 05:13:28;;;;;;;36.45;14.23;;;;;;;;;;5026829;28;20118;-76
2024/01/12 05:15:53;;;;;;;37.88;14.02;;;;;;;;;;5028067;28;20116;-75
2024/01/12 05:18:18;;;;;;;34.05;14.20;;;;;;;;;;5028698;28;20041;-76
2024/01/12 05:20:44;;;;;;;39.25;13.43;;;;;;;;;;5028340;28;20053;-75
2024/01/12 05:23:09;;;;;;;37.17;14.57;;;;;;;;;;5028405;28;20052;-76
2024/01/12 05:25:35;;;;;;;43.17;14.95;;;;;;;;;;5028018;28;20045;-75
2024/01/12 05:28:00;;;;;;;37.95;14.23;;;;;;;;;;5025202;28;20061;-76
2024/01/12 05:30:25;;;;;;;40.15;14.23;;;;;;;;;;5024230;28;20037;-75
2024/01/12 05:32:51;;;;;;;41.90;14.18;;;;;;;;;;5025966;28;20037;-76
2024/01/12 05:35:16;;;;;;;38.78;15.00;;;;;;;;;;5027748;28;20032;-76
2024/01/12 05:37:42;;;;;;;39.30;16.27;;;;;;;;;;5027239;28;20029;-76
2024/01/12 05:40:07;;;;;;;38.40;14.18;;;;;;;;;;5009496;28;20088;-75
2024/01/12 05:42:33;;;;;;;43.85;15.75;;;;;;;;;;5026688;28;20045;-76
2024/01/12 05:44:59;;;;;;;36.72;13.50;;;;;;;;;;5009018;28;20067;-76
2024/01/12 05:47:24;;;;;;;37.72;14.63;;;;;;;;;;5027159;28;20059;-75
2024/01/12 05:49:50;;;;;;;39.35;13.77;;;;;;;;;;5027901;28;20022;-76
2024/01/12 05:52:15;;;;;;;34.83;13.10;;;;;;;;;;5026126;28;20034;-77
2024/01/12 05:54:40;;;;;;;36.47;13.43;;;;;;;;;;5025856;28;20404;-76
2024/01/12 05:57:06;;;;;;;31.73;12.18;;;;;;;;;;5026178;28;20034;-76
2024/01/12 05:59:32;;;;;;;38.20;14.98;;;;;;;;;;5008931;28;20033;-76
2024/01/12 06:01:58;;;;;;;42.90;13.90;;;;;;;;;;5027416;28;20026;-76
2024/01/12 06:04:24;;;;;;;33.80;11.43;;;;;;;;;;5009048;28;20133;-76
2024/01/12 06:06:49;;;;;;;34.13;11.98;;;;;;;;;;5030006;28;20119;-76
2024/01/12 06:09:15;;;;;;;39.15;13.82;;;;;;;;;;5038604;28;20131;-76
2024/01/12 06:11:42;;;;;;;31.80;11.70;;;;;;;;;;5025074;28;20029;-76
2024/01/12 06:14:08;;;;;;;33.22;12.85;;;;;;;;;;5013357;28;20025;-76
2024/01/12 06:16:33;;;;;;;30.77;11.65;;;;;;;;;;5028252;28;20112;-77
2024/01/12 06:18:58;;;;;;;36.53;10.57;;;;;;;;;;5026946;28;20565;-77
2024/01/12 06:21:24;;;;;;;29.92;11.32;;;;;;;;;;5026831;28;20045;-77
2024/01/12 06:23:49;;;;;;;35.53;12.35;;;;;;;;;;5025788;28;20041;-76
2024/01/12 06:26:15;;;;;;;27.85;10.18;;;;;;;;;;5027028;28;20053;-77
2024/01/12 06:28:40;;;;;;;31.83;12.40;;;;;;;;;;5022269;28;20140;-74
2024/01/12 06:31:05;;;;;;;29.33;9.93;;;;;;;;;;4999890;28;20171;-77
2024/01/12 06:33:32;;;;;;;32.67;12.57;;;;;;;;;;5023815;28;20038;-77
2024/01/12 06:35:57;;;;;;;23.63;9.10;;;;;;;;;;5001426;28;20034;-77
2024/01/12 06:38:23;;;;;;;32.55;11.07;;;;;;;;;;5019650;28;20029;-76
2024/01/12 06:40:49;;;;;;;29.10;9.40;;;;;;;;;;5024592;28;20091;-77
2024/01/12 06:43:14;;;;;;;23.58;9.10;;;;;;;;;;5022412;28;20056;-76
2024/01/12 06:45:40;;;;;;;27.25;9.02;;;;;;;;;;5022741;28;20041;-76
2024/01/12 06:48:06;;;;;;;22.27;8.48;;;;;;;;;;5025109;28;20045;-76
2024/01/12 06:50:33;;;;;;;27.33;8.02;;;;;;;;;;5046363;28;20029;-77
2024/01/12 06:53:01;;;;;;;23.98;8.45;;;;;;;;;;5027089;28;20048;-75
2024/01/12 06:55:27;;;;;;;24.73;9.65;;;;;;;;;;5027391;28;20049;-75
2024/01/12 06:57:53;;;;;;;37.50;10.40;;;;;;;;;;5042656;28;20037;-74
2024/01/12 07:00:19;;;;;;;16.50;6.72;;;;;;;;;;5033128;28;20053;-76
2024/01/12 07:02:45;;;;;;;33.35;10.18;;;;;;;;;;5020633;28;20117;-74
2024/01/12 07:05:10;;;;;;;23.65;8.40;;;;;;;;;;5021113;28;20112;-76
2024/01/12 07:07:36;;;;;;;26.48;9.30;;;;;;;;;;5007167;28;20041;-76
2024/01/12 07:10:01;;;;;;;29.20;8.80;;;;;;;;;;5014730;28;20048;-76
2024/01/12 07:12:36;;;;;;;26.88;8.88;;;;;;;;;;5031659;28;20061;-76
2024/01/12 07:15:02;;;;;;;26.85;9.63;;;;;;;;;;5028738;28;20091;-76
2024/01/12 07:17:28;;;;;;;27.05;8.73;;;;;;;;;;5029405;28;20029;-76
2024/01/12 07:19:53;;;;;;;32.00;9.40;;;;;;;;;;5048173;28;20025;-76
2024/01/12 07:22:19;;;;;;;30.95;8.85;;;;;;;;;;5045195;28;20041;-75
2024/01/12 07:24:45;;;;;;;31.55;10.45;;;;;;;;;;5028368;28;20077;-75
2024/01/12 07:27:11;;;;;;;27.33;9.23;;;;;;;;;;5007710;28;20077;-76
2024/01/12 07:29:37;;;;;;;29.23;8.95;;;;;;;;;;5028756;28;20422;-76
2024/01/12 07:32:02;;;;;;;25.25;9.15;;;;;;;;;;5008826;28;20044;-76
2024/01/12 07:34:28;;;;;;;29.25;9.35;;;;;;;;;;5009487;28;20120;-76
2024/01/12 07:36:53;;;;;;;26.48;8.75;;;;;;;;;;5024465;28;20041;-76
2024/01/12 07:39:19;;;;;;;25.05;9.88;;;;;;;;;;5026834;28;20068;-76
2024/01/12 07:41:44;;;;;;;28.05;9.30;;;;;;;;;;5009540;28;20041;-76
2024/01/12 07:44:11;;;;;;;27.55;8.30;;;;;;;;;;5009078;28;20025;-76
2024/01/12 07:46:36;;;;;;;26.25;8.70;;;;;;;;;;5007325;28;20077;-76
2024/01/12 07:49:02;;;;;;;23.13;8.10;;;;;;;;;;5007948;28;20073;-76
2024/01/12 07:51:28;;;;;;;34.53;10.20;;;;;;;;;;4989691;28;20092;-76
2024/01/12 07:53:53;;;;;;;33.65;10.13;;;;;;;;;;5007917;28;20042;-76
2024/01/12 07:56:18;;;;;;;21.73;8.85;;;;;;;;;;4991870;28;20032;-76
2024/01/12 07:58:44;;;;;;;25.05;10.27;;;;;;;;;;5027532;28;20038;-76
2024/01/12 08:01:13;;;;;;;31.85;10.25;;;;;;;;;;5020815;28;20037;-75
2024/01/12 08:03:40;;;;;;;24.73;9.45;;;;;;;;;;5020632;28;20522;-75
2024/01/12 08:06:05;;;;;;;27.85;9.75;;;;;;;;;;5028422;28;20049;-75
2024/01/12 08:08:31;;;;;;;27.73;10.10;;;;;;;;;;5041780;28;20545;-75
2024/01/12 08:10:57;;;;;;;30.45;9.95;;;;;;;;;;5004454;28;20037;-75
2024/01/12 08:13:23;;;;;;;33.20;9.98;;;;;;;;;;5002002;28;20125;-75
2024/01/12 08:15:48;;;;;;;27.23;8.63;;;;;;;;;;5004903;28;20095;-75
2024/01/12 08:18:14;;;;;;;28.00;9.15;;;;;;;;;;5003580;28;20481;-76
2024/01/12 08:20:39;;;;;;;34.05;9.45;;;;;;;;;;5027549;28;20534;-75
2024/01/12 08:23:05;;;;;;;31.58;9.82;;;;;;;;;;5026215;28;20037;-75
2024/01/12 08:25:30;;;;;;;30.65;10.45;;;;;;;;;;5022173;28;20042;-75
2024/01/12 08:27:56;;;;;;;24.13;8.95;;;;;;;;;;5027315;28;20473;-75
2024/01/12 08:30:22;;;;;;;33.05;11.40;;;;;;;;;;5020985;28;20045;-75
2024/01/12 08:32:47;;;;;;;25.02;9.48;;;;;;;;;;5025498;28;20037;-75
2024/01/12 08:35:13;;;;;;;28.27;9.18;;;;;;;;;;5023258;28;20487;-75
2024/01/12 08:37:38;;;;;;;31.73;8.82;;;;;;;;;;5036362;28;20044;-75
2024/01/12 08:40:04;;;;;;;27.10;7.82;;;;;;;;;;5037872;28;20104;-75
2024/01/12 08:42:30;;;;;;;32.13;9.00;;;;;;;;;;5013880;28;20041;-75
2024/01/12 08:44:55;;;;;;;28.75;10.02;;;;;;;;;;5012368;28;20048;-76
2024/01/12 08:47:21;;;;;;;29.90;10.63;;;;;;;;;;5024324;28;20029;-75
2024/01/12 08:49:46;;;;;;;24.42;9.80;;;;;;;;;;5002771;28;20567;-75
2024/01/12 08:52:12;;;;;;;27.17;8.90;;;;;;;;;;5002616;28;20044;-75
2024/01/12 08:54:37;;;;;;;29.63;9.45;;;;;;;;;;5024665;28;20047;-75
2024/01/12 08:57:03;;;;;;;31.88;9.57;;;;;;;;;;5020761;28;20049;-76
2024/01/12 08:59:28;;;;;;;29.92;10.15;;;;;;;;;;5015365;28;20125;-75
2024/01/12 09:01:55;;;;;;;25.17;10.38;;;;;;;;;;5014108;28;20022;-75
2024/01/12 09:04:22;;;;;;;30.38;10.13;;;;;;;;;;5006283;28;20117;-75
2024/01/12 09:06:48;;;;;;;21.42;8.85;;;;;;;;;;5008656;28;20554;-79
2024/01/12 09:09:13;;;;;;;35.35;11.75;;;;;;;;;;5026019;28;20044;-79
2024/01/12 09:11:39;;;;;;;34.25;11.05;;;;;;;;;;5008459;28;20068;-78
2024/01/12 09:14:05;;;;;;;23.77;9.00;;;;;;;;;;5009928;28;20029;-79
2024/01/12 09:16:30;;;;;;;31.85;10.35;;;;;;;;;;5023128;28;20029;-78
2024/01/12 09:18:55;;;;;;;29.65;9.57;;;;;;;;;;5014943;28;20040;-77
2024/01/12 09:21:23;;;;;;;28.75;11.05;;;;;;;;;;5012742;28;20143;-78
2024/01/12 09:23:48;;;;;;;23.80;8.55;;;;;;;;;;5023486;28;20430;-78
2024/01/12 09:26:13;;;;;;;25.88;8.77;;;;;;;;;;5026894;28;20021;-77
2024/01/12 09:28:39;;;;;;;33.60;10.40;;;;;;;;;;5020564;28;20045;-80
2024/01/12 09:31:05;;;;;;;27.35;9.50;;;;;;;;;;5023828;28;21048;-83
2024/01/12 09:33:31;;;;;;;31.75;10.18;;;;;;;;;;5004977;28;20581;-78
2024/01/12 09:35:56;;;;;;;25.10;9.23;;;;;;;;;;5024690;28;20140;-81
2024/01/12 09:38:22;;;;;;;35.17;12.60;;;;;;;;;;5025354;28;20057;-79
2024/01/12 09:40:48;;;;;;;35.45;12.75;;;;;;;;;;5009631;28;20529;-78
2024/01/12 09:43:14;;;;;;;45.55;15.98;;;;;;;;;;4997629;28;20160;-83
2024/01/12 09:45:44;;;;;;;45.83;13.45;;;;;;;;;;5009380;28;20096;-85
2024/01/12 09:48:11;;;;;;;36.38;11.48;;;;;;;;;;5009272;28;20091;-85
2024/01/12 09:50:38;;;;;;;30.20;11.50;;;;;;;;;;5027721;28;20033;-85
2024/01/12 09:53:03;;;;;;;52.20;16.00;;;;;;;;;;5011233;28;20037;-79
2024/01/12 09:55:29;;;;;;;49.92;15.88;;;;;;;;;;5031616;28;20108;-83
2024/01/12 09:57:55;;;;;;;35.88;12.25;;;;;;;;;;5036794;28;20581;-83
2024/01/12 10:00:25;;;;;;;31.33;9.60;;;;;;;;;;5035044;28;20119;-82
2024/01/12 10:02:51;;;;;;;25.05;10.02;;;;;;;;;;5009500;28;20072;-82
2024/01/12 10:05:17;;;;;;;30.70;9.43;;;;;;;;;;5009174;28;20069;-82
2024/01/12 10:07:42;;;;;;;28.85;8.75;;;;;;;;;;5025223;28;20045;-82
2024/01/12 10:10:08;;;;;;;27.42;10.25;;;;;;;;;;5026351;28;20064;-82
2024/01/12 10:12:33;;;;;;;26.65;8.73;;;;;;;;;;5008680;28;20124;-83
2024/01/12 10:15:03;;;;;;;23.30;9.18;;;;;;;;;;5020247;28;20046;-83
2024/01/12 10:17:30;;;;;;;34.08;9.77;;;;;;;;;;5002646;28;20049;-82
2024/01/12 10:19:56;;;;;;;25.77;9.30;;;;;;;;;;5013424;28;20036;-82
2024/01/12 10:22:21;;;;;;;29.23;8.75;;;;;;;;;;5001138;28;20046;-82
2024/01/12 10:24:56;;;;;;;30.67;10.18;;;;;;;;;;5027263;28;20095;-82
2024/01/12 10:27:21;;;;;;;33.42;10.45;;;;;;;;;;4993930;28;20252;-84
2024/01/12 10:29:47;;;;;;;30.42;11.20;;;;;;;;;;5029993;28;20585;-83
2024/01/12 10:32:12;;;;;;;37.28;10.73;;;;;;;;;;5028813;28;20037;-83
2024/01/12 10:34:39;;;;;;;29.23;9.95;;;;;;;;;;5011356;28;20045;-83
2024/01/12 10:37:07;;;;;;;34.35;9.57;;;;;;;;;;5026858;28;20136;-84
2024/01/12 10:39:35;;;;;;;27.55;9.40;;;;;;;;;;5019855;28;20566;-83
2024/01/12 10:42:05;;;;;;;30.13;10.75;;;;;;;;;;5006794;28;20038;-81
2024/01/12 10:44:34;;;;;;;31.45;10.57;;;;;;;;;;5008758;28;20029;-83
2024/01/12 10:47:04;;;;;;;37.00;12.30;;;;;;;;;;5010219;28;20049;-84
2024/01/12 10:49:38;;;;;;;37.15;12.77;;;;;;;;;;5010684;28;20049;-81
2024/01/12 10:52:08;;;;;;;31.55;12.15;;;;;;;;;;5007964;28;20044;-83
2024/01/12 10:54:38;;;;;;;38.22;11.38;;;;;;;;;;5021995;28;20997;-82
2024/01/12 10:57:04;;;;;;;38.08;12.38;;;;;;;;;;5015323;28;20073;-83
2024/01/12 10:59:30;;;;;;;28.45;10.13;;;;;;;;;;5004078;28;20569;-83
2024/01/12 11:01:56;;;;;;;32.72;10.63;;;;;;;;;;5022398;28;20034;-83
2024/01/12 11:04:23;;;;;;;31.25;12.10;;;;;;;;;;5023201;28;20045;-84
2024/01/12 11:06:55;;;;;;;33.33;11.82;;;;;;;;;;5015508;28;20046;-83
2024/01/12 11:09:24;;;;;;;24.65;8.40;;;;;;;;;;4995018;28;20034;-83
2024/01/12 11:11:57;;;;;;;22.38;8.63;;;;;;;;;;4994000;28;20048;-84
2024/01/12 11:14:23;;;;;;;23.75;8.45;;;;;;;;;;5012661;28;20033;-80
2024/01/12 11:16:50;;;;;;;32.67;10.82;;;;;;;;;;5002873;28;20029;-79
2024/01/12 11:19:18;;;;;;;25.85;9.50;;;;;;;;;;5008189;28;20044;-84
2024/01/12 11:21:44;;;;;;;38.97;10.48;;;;;;;;;;4995200;28;20077;-83
2024/01/12 11:24:11;;;;;;;25.00;9.63;;;;;;;;;;5009780;28;20049;-83
2024/01/12 11:26:37;;;;;;;27.58;8.63;;;;;;;;;;4991484;28;20026;-83
2024/01/12 11:29:03;;;;;;;28.30;10.00;;;;;;;;;;4992041;28;20064;-83
2024/01/12 11:31:29;;;;;;;25.90;10.10;;;;;;;;;;4991362;28;20049;-83
2024/01/12 11:34:02;;;;;;;32.22;10.18;;;;;;;;;;4989273;28;20038;-84
2024/01/12 11:36:29;;;;;;;29.17;10.57;;;;;;;;;;4987790;28;20038;-83
2024/01/12 11:38:58;;;;;;;32.58;11.55;;;;;;;;;;5016319;28;20048;-83
2024/01/12 11:41:31;;;;;;;29.38;10.32;;;;;;;;;;5026892;28;20413;-82
2024/01/12 11:43:57;;;;;;;31.00;10.05;;;;;;;;;;4992302;28;20041;-82
2024/01/12 11:46:26;;;;;;;25.98;10.13;;;;;;;;;;4990697;28;20073;-83
2024/01/12 11:48:52;;;;;;;28.20;9.88;;;;;;;;;;5008539;28;20052;-80
2024/01/12 11:51:27;;;;;;;30.80;9.23;;;;;;;;;;5023318;28;20124;-80
2024/01/12 11:53:56;;;;;;;23.33;9.07;;;;;;;;;;5009231;28;20132;-81
2024/01/12 11:56:21;;;;;;;25.55;9.98;;;;;;;;;;5028515;28;20055;-81
2024/01/12 11:58:47;;;;;;;22.30;8.45;;;;;;;;;;5023976;28;21176;-81
2024/01/12 12:01:13;;;;;;;27.65;9.52;;;;;;;;;;5023251;28;20056;-82
2024/01/12 12:03:38;;;;;;;25.05;9.15;;;;;;;;;;5024593;28;20037;-81
2024/01/12 12:06:05;;;;;;;29.17;9.40;;;;;;;;;;5001755;28;20052;-81
2024/01/12 12:08:30;;;;;;;35.75;8.80;;;;;;;;;;5005288;28;20103;-81
2024/01/12 12:10:55;;;;;;;27.60;8.88;;;;;;;;;;5009850;28;20037;-82
2024/01/12 12:13:21;;;;;;;25.27;8.65;;;;;;;;;;5005555;28;20577;-81
2024/01/12 12:15:46;;;;;;;25.40;7.63;;;;;;;;;;5001024;28;20042;-82
2024/01/12 12:18:13;;;;;;;24.05;7.03;;;;;;;;;;5026701;28;20037;-82
2024/01/12 12:20:40;;;;;;;20.83;8.00;;;;;;;;;;5017244;28;20058;-82
2024/01/12 12:23:07;;;;;;;26.75;8.68;;;;;;;;;;5021075;28;20041;-82
2024/01/12 12:25:32;;;;;;;34.10;11.55;;;;;;;;;;5005659;28;20128;-82
2024/01/12 12:27:58;;;;;;;21.70;8.60;;;;;;;;;;5003990;28;20105;-82
2024/01/12 12:30:29;;;;;;;25.40;9.15;;;;;;;;;;5027260;28;20071;-82
2024/01/12 12:32:58;;;;;;;32.60;11.07;;;;;;;;;;5029340;28;20125;-82
2024/01/12 12:35:23;;;;;;;27.20;9.45;;;;;;;;;;5056970;28;20033;-82
2024/01/12 12:37:52;;;;;;;27.77;10.10;;;;;;;;;;5031081;28;20032;-82
2024/01/12 12:40:19;;;;;;;26.88;8.73;;;;;;;;;;5008343;28;20040;-82
2024/01/12 12:42:48;;;;;;;33.08;12.07;;;;;;;;;;5012706;28;20037;-82
2024/01/12 12:45:15;;;;;;;33.63;10.45;;;;;;;;;;5006319;28;20083;-81
2024/01/12 12:47:41;;;;;;;28.13;8.90;;;;;;;;;;5004529;28;20710;-83
2024/01/12 12:50:11;;;;;;;24.00;7.35;;;;;;;;;;5016951;28;20522;-82
2024/01/12 12:52:38;;;;;;;28.15;10.02;;;;;;;;;;5004509;28;20037;-82
2024/01/12 12:55:04;;;;;;;19.77;8.32;;;;;;;;;;5005007;28;20037;-82
2024/01/12 12:57:30;;;;;;;29.30;8.25;;;;;;;;;;5009163;28;20129;-82
2024/01/12 12:59:56;;;;;;;22.52;8.50;;;;;;;;;;5008533;28;20038;-82
2024/01/12 13:02:22;;;;;;;24.10;9.18;;;;;;;;;;5008628;28;20069;-82
2024/01/12 13:04:47;;;;;;;17.85;6.85;;;;;;;;;;5004071;28;20114;-83
2024/01/12 13:07:13;;;;;;;24.17;8.35;;;;;;;;;;5007271;28;20042;-83
2024/01/12 13:09:39;;;;;;;15.93;6.05;;;;;;;;;;5009857;28;20042;-82
2024/01/12 13:12:05;;;;;;;26.60;7.57;;;;;;;;;;5007685;28;20037;-83
2024/01/12 13:14:30;;;;;;;23.02;8.30;;;;;;;;;;5007525;28;20092;-82
2024/01/12 13:16:56;;;;;;;27.90;10.00;;;;;;;;;;5004629;28;20076;-82
2024/01/12 13:19:22;;;;;;;23.48;8.20;;;;;;;;;;5007086;28;20034;-83
2024/01/12 13:21:48;;;;;;;24.52;7.88;;;;;;;;;;5005544;28;20053;-83
2024/01/12 13:24:14;;;;;;;28.17;8.88;;;;;;;;;;5008807;28;20042;-83
2024/01/12 13:26:39;;;;;;;31.05;10.68;;;;;;;;;;5008870;28;20029;-83
2024/01/12 13:29:05;;;;;;;38.80;15.05;;;;;;;;;;5008567;28;20029;-83
2024/01/12 13:31:31;;;;;;;29.42;12.30;;;;;;;;;;5028123;28;20036;-82
2024/01/12 13:33:57;;;;;;;34.70;10.85;;;;;;;;;;5029064;28;20124;-82
2024/01/12 13:36:23;;;;;;;26.50;8.18;;;;;;;;;;5011290;28;20135;-83
2024/01/12 13:38:52;;;;;;;27.50;9.75;;;;;;;;;;5010912;28;20130;-82
2024/01/12 13:41:17;;;;;;;39.30;11.32;;;;;;;;;;5011628;28;20029;-83
2024/01/12 13:43:43;;;;;;;31.42;11.60;;;;;;;;;;4994458;28;20049;-82
2024/01/12 13:46:09;;;;;;;40.85;12.50;;;;;;;;;;4998446;28;20041;-82
2024/01/12 13:48:34;;;;;;;30.35;11.15;;;;;;;;;;5000540;28;20041;-82
2024/01/12 13:51:01;;;;;;;45.58;13.43;;;;;;;;;;5000801;28;20045;-83
2024/01/12 13:53:27;;;;;;;35.22;11.02;;;;;;;;;;5007229;28;20025;-83
2024/01/12 13:55:53;;;;;;;23.75;9.25;;;;;;;;;;5025834;28;20025;-83
2024/01/12 13:58:18;;;;;;;22.27;8.02;;;;;;;;;;5043834;28;20025;-83
2024/01/12 14:00:44;;;;;;;23.80;8.88;;;;;;;;;;5030041;28;20083;-82
2024/01/12 14:03:11;;;;;;;32.20;10.30;;;;;;;;;;5046158;28;20433;-82
2024/01/12 14:05:38;;;;;;;22.98;8.35;;;;;;;;;;5029209;28;20086;-82
2024/01/12 14:08:05;;;;;;;26.08;8.43;;;;;;;;;;5031118;28;20050;-82
2024/01/12 14:10:31;;;;;;;24.52;8.40;;;;;;;;;;5027510;28;20034;-83
2024/01/12 14:12:57;;;;;;;18.98;7.35;;;;;;;;;;5027680;28;20249;-82